Time;durP1;ratioP1;P1;durP2;ratioP2;P2;SDS_P1;SDS_P2;PMS_P1;PMS_P2;Temp;Humidity;BMP_temperature;BMP_pressure;BME280_temperature;BME280_humidity;BME280_pressure;Samples;Min_cycle;Max_cycle;Signal;HPM_P1;HPM_P2
2023/04/30 00:03:44;;;;;;;84.00;46.92;;;;;;;9.39;100.00;101183.44;8285789;28;20626;-59
2023/04/30 00:07:45;;;;;;;77.35;43.70;;;;;;;9.08;100.00;101184.03;8287253;28;20443;-61
2023/04/30 00:11:46;;;;;;;84.72;46.05;;;;;;;8.93;100.00;101199.53;8288134;28;20041;-60
2023/04/30 00:15:46;;;;;;;88.18;46.55;;;;;;;8.97;100.00;101186.69;8258551;28;20046;-60
2023/04/30 00:19:47;;;;;;;85.05;46.10;;;;;;;9.11;100.00;101184.69;8276228;28;20510;-60
2023/04/30 00:23:47;;;;;;;84.82;45.63;;;;;;;9.18;100.00;101203.97;8283780;28;20038;-59
2023/04/30 00:27:48;;;;;;;83.10;46.33;;;;;;;8.86;100.00;101200.09;8282768;28;20157;-59
2023/04/30 00:31:48;;;;;;;87.78;45.60;;;;;;;8.90;100.00;101197.06;8298392;28;20046;-58
2023/04/30 00:35:49;;;;;;;83.82;44.10;;;;;;;8.77;100.00;101193.56;8281564;28;20051;-59
2023/04/30 00:39:49;;;;;;;84.65;47.42;;;;;;;8.78;100.00;101194.44;8282870;28;20046;-59
2023/04/30 00:43:50;;;;;;;80.95;42.05;;;;;;;8.68;100.00;101201.44;8284371;28;20083;-59
2023/04/30 00:47:50;;;;;;;77.63;42.35;;;;;;;8.55;100.00;101200.63;8285003;28;20041;-59
2023/04/30 00:51:53;;;;;;;80.65;42.75;;;;;;;8.67;100.00;101197.91;8285251;28;20049;-58
2023/04/30 00:55:54;;;;;;;72.35;39.13;;;;;;;8.52;100.00;101198.16;8283987;28;20038;-59
2023/04/30 00:59:55;;;;;;;75.55;40.72;;;;;;;8.80;100.00;101205.94;8284449;28;20042;-59
2023/04/30 01:03:56;;;;;;;72.30;38.13;;;;;;;8.57;100.00;101201.38;8281462;28;20049;-59
2023/04/30 01:07:56;;;;;;;74.05;39.08;;;;;;;8.58;100.00;101201.25;8283699;28;20045;-59
2023/04/30 01:12:12;;;;;;;74.28;39.25;;;;;;;8.33;100.00;101205.84;8284800;28;20029;-59
2023/04/30 01:16:34;;;;;;;65.22;36.58;;;;;;;8.24;100.00;101212.75;8283294;28;20045;-58
2023/04/30 01:20:43;;;;;;;65.10;33.15;;;;;;;8.37;100.00;101196.56;8283536;28;20053;-58
2023/04/30 01:25:23;;;;;;;61.60;34.22;;;;;;;8.21;100.00;101206.66;8283851;28;20030;-59
2023/04/30 01:29:26;;;;;;;60.75;33.78;;;;;;;8.50;100.00;101202.78;8282570;28;20385;-59
2023/04/30 01:33:27;;;;;;;65.35;35.20;;;;;;;8.75;100.00;101198.19;8283874;28;20033;-59
2023/04/30 01:42:10;;;;;;;56.00;31.35;;;;;;;8.74;100.00;101206.38;8348008;27;20936;-58
2023/04/30 01:46:26;;;;;;;54.77;31.00;;;;;;;8.71;100.00;101195.81;8344861;28;20041;-58
2023/04/30 01:50:42;;;;;;;50.95;29.42;;;;;;;8.40;100.00;101202.59;8344532;28;20499;-57
2023/04/30 01:54:50;;;;;;;54.40;28.33;;;;;;;8.33;100.00;101200.44;8311952;28;20502;-58
2023/04/30 01:58:52;;;;;;;51.40;29.58;;;;;;;8.22;100.00;101197.59;8311912;28;20048;-59
2023/04/30 02:02:53;;;;;;;48.17;28.50;;;;;;;8.13;100.00;101199.13;8309587;28;20053;-61
2023/04/30 02:06:53;;;;;;;46.58;28.10;;;;;;;8.28;100.00;101197.22;8310730;28;20369;-62
2023/04/30 02:10:53;;;;;;;52.83;27.27;;;;;;;8.12;100.00;101207.31;8310659;28;20041;-62
2023/04/30 02:14:54;;;;;;;51.45;28.63;;;;;;;8.21;100.00;101196.78;8311336;28;20037;-62
2023/04/30 02:18:55;;;;;;;46.97;28.30;;;;;;;8.30;100.00;101195.28;8311145;28;20045;-62
2023/04/30 02:22:55;;;;;;;46.08;28.08;;;;;;;8.16;100.00;101204.31;8308942;28;20429;-62
2023/04/30 02:26:56;;;;;;;51.03;28.77;;;;;;;7.98;100.00;101198.38;8310672;28;20037;-61
2023/04/30 02:30:56;;;;;;;48.35;28.05;;;;;;;8.06;100.00;101206.78;8310759;28;20038;-62
2023/04/30 02:34:57;;;;;;;48.92;28.17;;;;;;;8.08;100.00;101196.75;8312426;28;20042;-62
2023/04/30 02:38:57;;;;;;;52.90;27.42;;;;;;;8.08;100.00;101206.66;8311918;28;20486;-59
2023/04/30 02:43:00;;;;;;;51.90;28.58;;;;;;;7.90;100.00;101211.50;8312895;28;20056;-62
2023/04/30 02:47:01;;;;;;;47.33;25.90;;;;;;;8.00;100.00;101207.19;8274627;28;20041;-62
2023/04/30 02:51:02;;;;;;;47.60;26.73;;;;;;;7.81;100.00;101206.75;8276361;28;20827;-61
2023/04/30 02:55:03;;;;;;;44.25;26.98;;;;;;;7.81;100.00;101217.53;8292410;28;20068;-61
2023/04/30 02:59:04;;;;;;;50.03;28.27;;;;;;;7.80;100.00;101212.25;8293170;28;20049;-61
2023/04/30 03:03:05;;;;;;;53.90;28.63;;;;;;;7.84;100.00;101214.63;8293765;28;20061;-61
2023/04/30 03:07:05;;;;;;;54.25;28.98;;;;;;;7.88;100.00;101220.69;8292253;28;20041;-61
2023/04/30 03:11:06;;;;;;;52.00;29.15;;;;;;;7.86;100.00;101223.47;8321959;28;20059;-62
2023/04/30 03:15:07;;;;;;;45.00;25.20;;;;;;;7.71;100.00;101219.13;8325549;28;20399;-61
2023/04/30 03:19:07;;;;;;;46.63;25.83;;;;;;;7.25;100.00;101209.78;8315403;28;20037;-61
2023/04/30 03:23:08;;;;;;;44.65;26.00;;;;;;;7.34;100.00;101209.16;8291443;28;20042;-61
2023/04/30 03:27:08;;;;;;;48.25;26.42;;;;;;;7.19;100.00;101209.31;8291297;28;20037;-62
2023/04/30 03:31:09;;;;;;;45.65;25.35;;;;;;;6.99;100.00;101217.84;8293161;28;20122;-62
2023/04/30 03:35:10;;;;;;;51.50;26.27;;;;;;;6.88;100.00;101215.88;8292351;28;20042;-62
2023/04/30 03:39:10;;;;;;;51.17;28.98;;;;;;;6.86;100.00;101212.41;8290469;28;20044;-62
2023/04/30 03:43:11;;;;;;;56.65;29.65;;;;;;;7.11;100.00;101204.44;8321504;28;20064;-62
2023/04/30 03:47:11;;;;;;;51.38;28.33;;;;;;;6.94;100.00;101206.53;8325345;28;20048;-62
2023/04/30 03:51:12;;;;;;;45.80;24.95;;;;;;;6.85;100.00;101215.19;8316935;28;20045;-61
2023/04/30 03:55:12;;;;;;;50.97;26.10;;;;;;;7.16;100.00;101209.50;8292195;28;20044;-62
2023/04/30 03:59:13;;;;;;;45.25;24.75;;;;;;;6.99;100.00;101210.66;8292042;28;20030;-61
2023/04/30 04:03:15;;;;;;;48.10;27.92;;;;;;;6.97;100.00;101215.28;8290013;28;20183;-61
2023/04/30 04:07:16;;;;;;;50.10;27.48;;;;;;;6.85;100.00;101216.06;8291377;28;20038;-61
2023/04/30 04:11:17;;;;;;;50.72;26.10;;;;;;;6.73;100.00;101219.56;8306075;28;20033;-61
2023/04/30 04:15:17;;;;;;;43.15;26.20;;;;;;;6.64;100.00;101228.19;8323741;28;20037;-61
2023/04/30 04:19:18;;;;;;;52.08;27.70;;;;;;;6.45;100.00;101213.34;8312934;28;20033;-61
2023/04/30 04:23:21;;;;;;;49.83;25.77;;;;;;;6.53;100.00;101214.59;8291320;28;20557;-60
2023/04/30 04:27:22;;;;;;;47.33;26.95;;;;;;;6.39;100.00;101222.66;8291328;28;20452;-60
2023/04/30 04:31:23;;;;;;;48.90;26.85;;;;;;;6.20;100.00;101232.84;8291176;28;20041;-61
2023/04/30 04:35:24;;;;;;;50.25;27.05;;;;;;;6.37;100.00;101232.63;8304267;28;20070;-61
2023/04/30 04:39:25;;;;;;;56.13;30.92;;;;;;;6.89;100.00;101231.03;8290147;28;20042;-60
2023/04/30 04:43:26;;;;;;;51.63;28.35;;;;;;;6.71;100.00;101232.22;8290969;28;20042;-61
2023/04/30 04:47:27;;;;;;;51.60;27.55;;;;;;;6.87;100.00;101230.28;8290110;28;20056;-58
2023/04/30 04:51:27;;;;;;;56.88;29.67;;;;;;;7.05;100.00;101234.41;8290072;28;20041;-59
2023/04/30 04:55:28;;;;;;;53.92;29.20;;;;;;;7.31;100.00;101230.88;8290185;28;20258;-59
2023/04/30 04:59:29;;;;;;;47.55;27.42;;;;;;;7.31;100.00;101246.16;8290706;28;20041;-59
2023/04/30 05:03:30;;;;;;;47.90;27.08;;;;;;;7.62;100.00;101252.06;8290032;28;20526;-59
2023/04/30 05:07:30;;;;;;;43.63;25.25;;;;;;;7.83;100.00;101250.59;8290066;28;20239;-59
2023/04/30 05:11:31;;;;;;;40.08;23.95;;;;;;;8.05;100.00;101256.22;8295218;28;20061;-59
2023/04/30 05:15:31;;;;;;;42.78;24.67;;;;;;;8.38;100.00;101253.03;8289912;28;20048;-59
2023/04/30 05:19:32;;;;;;;39.13;23.00;;;;;;;8.70;100.00;101254.28;8288650;28;20122;-59
2023/04/30 05:23:32;;;;;;;35.90;20.05;;;;;;;8.73;100.00;101258.59;8285063;28;20072;-59
2023/04/30 05:27:33;;;;;;;29.15;18.48;;;;;;;8.67;100.00;101267.13;8289189;28;20318;-59
2023/04/30 05:31:33;;;;;;;34.63;20.75;;;;;;;8.92;100.00;101267.94;8289816;28;20497;-59
2023/04/30 05:35:34;;;;;;;37.22;21.23;;;;;;;9.23;100.00;101269.22;8288818;28;20500;-59
2023/04/30 05:39:35;;;;;;;32.85;20.65;;;;;;;9.45;100.00;101280.13;8289517;28;20057;-59
2023/04/30 05:43:35;;;;;;;37.90;22.45;;;;;;;9.49;100.00;101270.84;8321835;28;20087;-59
2023/04/30 05:47:36;;;;;;;39.92;23.65;;;;;;;9.71;100.00;101279.03;8322409;28;20056;-59
2023/04/30 05:51:36;;;;;;;38.95;23.77;;;;;;;10.02;100.00;101270.31;8311844;28;20030;-59
2023/04/30 05:55:37;;;;;;;35.70;23.05;;;;;;;10.46;100.00;101275.81;8282870;28;20096;-59
2023/04/30 05:59:37;;;;;;;37.17;22.80;;;;;;;10.68;100.00;101264.16;8285778;28;20141;-59
2023/04/30 06:03:38;;;;;;;35.45;21.92;;;;;;;10.85;99.25;101269.94;8282494;28;20069;-59
2023/04/30 06:07:39;;;;;;;34.80;22.02;;;;;;;11.00;98.65;101265.97;8273868;28;20056;-59
2023/04/30 06:11:39;;;;;;;34.92;21.13;;;;;;;11.38;96.61;101268.25;8276253;28;20747;-59
2023/04/30 06:15:40;;;;;;;32.70;20.17;;;;;;;11.44;93.67;101263.16;8272109;28;20532;-59
2023/04/30 06:19:40;;;;;;;36.55;21.08;;;;;;;11.86;92.83;101256.88;8291285;28;20050;-59
2023/04/30 06:23:41;;;;;;;33.72;19.70;;;;;;;12.25;92.17;101251.72;8288142;28;20058;-59
2023/04/30 06:27:41;;;;;;;33.70;20.85;;;;;;;12.26;89.69;101264.28;8293035;28;20048;-59
2023/04/30 06:31:42;;;;;;;34.25;21.20;;;;;;;12.29;90.86;101272.16;8293422;28;20038;-59
2023/04/30 06:35:42;;;;;;;29.70;19.90;;;;;;;12.38;90.25;101263.22;8294618;28;20095;-59
2023/04/30 06:39:43;;;;;;;32.03;20.83;;;;;;;12.73;90.98;101264.56;8289931;28;20508;-59
2023/04/30 06:43:43;;;;;;;31.73;21.02;;;;;;;12.73;89.05;101259.13;8283606;28;20058;-59
2023/04/30 06:47:45;;;;;;;36.90;22.77;;;;;;;12.95;88.60;101252.63;8287313;28;20042;-59
2023/04/30 06:51:45;;;;;;;40.30;24.15;;;;;;;13.16;91.59;101250.72;8289251;28;20531;-61
2023/04/30 06:55:45;;;;;;;39.22;24.63;;;;;;;13.35;86.60;101261.63;8308349;28;20034;-59
2023/04/30 06:59:46;;;;;;;39.90;24.58;;;;;;;13.50;87.75;101266.50;8323069;28;20091;-60
2023/04/30 07:03:47;;;;;;;40.47;23.83;;;;;;;13.60;84.82;101266.50;8323441;28;20124;-59
2023/04/30 07:07:48;;;;;;;35.00;23.70;;;;;;;13.74;86.73;101258.81;8323062;28;20042;-59
2023/04/30 07:11:49;;;;;;;34.45;23.52;;;;;;;13.80;84.87;101257.38;8320304;28;20041;-59
2023/04/30 07:15:50;;;;;;;40.92;23.88;;;;;;;13.77;85.21;101271.25;8339448;28;20561;-59
2023/04/30 07:19:50;;;;;;;42.17;24.08;;;;;;;14.13;85.25;101256.94;8309413;28;20535;-58
2023/04/30 07:23:51;;;;;;;34.28;22.10;;;;;;;14.38;82.65;101258.19;8287905;28;20030;-57
2023/04/30 07:27:52;;;;;;;33.78;21.70;;;;;;;14.26;81.27;101259.34;8289566;28;20046;-57
2023/04/30 07:31:53;;;;;;;38.90;22.83;;;;;;;14.69;84.56;101263.25;8286480;28;20092;-58
2023/04/30 07:35:55;;;;;;;34.65;22.65;;;;;;;14.74;80.32;101255.50;8274173;28;20357;-57
2023/04/30 07:39:56;;;;;;;43.25;25.00;;;;;;;14.98;80.76;101255.81;8319823;28;20416;-57
2023/04/30 07:43:56;;;;;;;38.97;25.85;;;;;;;15.32;80.24;101248.75;8301592;28;20037;-57
2023/04/30 07:47:57;;;;;;;39.17;24.85;;;;;;;14.77;81.55;101251.63;8276123;28;20035;-57
2023/04/30 07:51:59;;;;;;;40.40;25.10;;;;;;;15.02;83.04;101249.06;8278013;28;20035;-57
2023/04/30 07:56:00;;;;;;;33.58;23.85;;;;;;;15.24;80.54;101262.28;8285953;28;20049;-57
2023/04/30 08:00:00;;;;;;;38.55;25.48;;;;;;;15.91;80.87;101255.50;8272919;28;20731;-57
2023/04/30 08:04:01;;;;;;;43.42;26.90;;;;;;;15.83;80.68;101258.16;8230530;28;20054;-57
2023/04/30 08:08:02;;;;;;;39.97;26.10;;;;;;;16.06;80.22;101262.09;8236926;28;20053;-57
2023/04/30 08:12:03;;;;;;;39.80;25.95;;;;;;;16.04;79.99;101261.44;8306193;28;20042;-57
2023/04/30 08:16:04;;;;;;;42.45;27.48;;;;;;;16.54;79.56;101257.06;8292246;28;20069;-57
2023/04/30 08:20:06;;;;;;;40.55;26.95;;;;;;;16.70;79.02;101257.16;8280649;28;20046;-57
2023/04/30 08:24:06;;;;;;;38.70;25.90;;;;;;;16.63;76.85;101258.81;8281741;28;20046;-57
2023/04/30 08:28:07;;;;;;;37.95;23.95;;;;;;;16.93;75.40;101255.59;8283626;28;20040;-57
2023/04/30 08:32:08;;;;;;;34.05;22.75;;;;;;;16.96;75.05;101247.06;8286050;28;20063;-57
2023/04/30 08:36:08;;;;;;;35.53;23.35;;;;;;;16.58;75.12;101250.25;8284392;28;20038;-58
2023/04/30 08:40:10;;;;;;;38.17;25.08;;;;;;;16.76;76.09;101251.03;8291280;28;20045;-58
2023/04/30 08:44:12;;;;;;;34.83;22.75;;;;;;;16.68;73.20;101249.13;8318541;28;20034;-58
2023/04/30 08:48:15;;;;;;;33.13;22.50;;;;;;;16.44;73.87;101245.41;8317500;28;20044;-58
2023/04/30 08:52:15;;;;;;;33.78;22.52;;;;;;;16.55;73.97;101242.38;8302497;28;20104;-60
2023/04/30 08:56:16;;;;;;;30.58;20.75;;;;;;;17.00;74.08;101237.50;8282698;28;20030;-60
2023/04/30 09:00:17;;;;;;;27.25;19.38;;;;;;;17.19;69.70;101248.16;8285002;28;20052;-58
2023/04/30 09:04:17;;;;;;;27.10;17.67;;;;;;;17.43;69.44;101240.94;8284791;28;20042;-58
2023/04/30 09:08:38;;;;;;;30.08;20.70;;;;;;;17.82;71.93;101235.72;8259190;28;20042;-58
2023/04/30 09:12:41;;;;;;;31.35;20.55;;;;;;;18.14;69.46;101238.44;8301020;28;20084;-58
2023/04/30 09:16:51;;;;;;;28.45;19.20;;;;;;;18.28;66.57;101232.28;8302118;28;20404;-58
2023/04/30 09:20:57;;;;;;;27.40;18.15;;;;;;;17.70;66.13;101220.66;8271907;28;20249;-60
2023/04/30 09:24:57;;;;;;;31.25;20.77;;;;;;;18.32;66.02;101217.22;8323522;28;20040;-62
2023/04/30 09:28:59;;;;;;;15.20;9.23;;;;;;;18.33;62.05;101213.44;8278676;28;20041;-60
2023/04/30 09:32:59;;;;;;;9.35;6.97;;;;;;;18.34;57.09;101204.22;8285200;28;20045;-60
2023/04/30 09:37:00;;;;;;;10.73;7.57;;;;;;;18.52;59.45;101206.78;8278003;28;20038;-60
2023/04/30 09:41:01;;;;;;;12.13;8.15;;;;;;;18.66;61.44;101215.13;8286021;28;20068;-60
2023/04/30 09:45:03;;;;;;;7.00;5.50;;;;;;;19.76;53.53;101209.44;8306256;28;20050;-62
2023/04/30 09:49:06;;;;;;;9.27;5.07;;;;;;;20.57;51.61;101196.69;8284042;28;20053;-60
2023/04/30 09:53:08;;;;;;;5.20;3.53;;;;;;;22.32;49.53;101208.94;8283424;28;20034;-60
2023/04/30 09:57:11;;;;;;;4.53;2.80;;;;;;;22.84;46.09;101206.59;8276039;28;20495;-60
2023/04/30 10:01:11;;;;;;;5.90;3.47;;;;;;;23.99;47.17;101190.91;8284407;28;20045;-60
2023/04/30 10:05:12;;;;;;;2.40;2.20;;;;;;;23.96;44.35;101188.56;8282722;28;20072;-60
2023/04/30 10:09:14;;;;;;;4.10;3.05;;;;;;;23.31;47.26;101192.00;8258232;28;20591;-60
2023/04/30 10:13:18;;;;;;;5.93;4.72;;;;;;;23.69;46.75;101186.81;8318070;28;20052;-60
2023/04/30 10:17:23;;;;;;;5.47;4.95;;;;;;;24.88;45.31;101187.44;8296835;28;20422;-60
2023/04/30 10:21:25;;;;;;;4.82;4.00;;;;;;;26.08;45.18;101178.13;8290217;28;20046;-60
2023/04/30 10:25:27;;;;;;;4.35;3.55;;;;;;;26.27;42.29;101174.34;8289174;28;20061;-60
2023/04/30 10:29:28;;;;;;;5.13;4.47;;;;;;;24.30;42.78;101167.09;8287328;28;20060;-60
2023/04/30 10:33:41;;;;;;;5.45;3.63;;;;;;;24.99;43.83;101167.41;8288516;28;20448;-60
2023/04/30 10:37:47;;;;;;;7.50;4.57;;;;;;;24.05;44.34;101166.06;8289106;28;20500;-60
2023/04/30 10:41:47;;;;;;;5.60;3.75;;;;;;;24.54;44.69;101162.81;8273301;28;20072;-60
2023/04/30 10:45:49;;;;;;;6.47;4.70;;;;;;;24.90;46.51;101154.88;8288366;28;20045;-60
2023/04/30 10:49:49;;;;;;;6.15;5.22;;;;;;;23.51;45.13;101156.19;8288319;28;20619;-60
2023/04/30 10:53:51;;;;;;;8.63;4.82;;;;;;;21.31;49.59;101145.06;8288659;28;20135;-61
2023/04/30 10:57:54;;;;;;;4.82;3.95;;;;;;;23.59;47.19;101144.94;8286009;28;20068;-60
2023/04/30 11:01:58;;;;;;;5.45;4.45;;;;;;;21.76;47.46;101130.09;8286079;28;20107;-60
2023/04/30 11:06:02;;;;;;;6.63;4.45;;;;;;;21.14;48.56;101129.81;8302447;28;20038;-60
2023/04/30 11:10:07;;;;;;;6.88;5.00;;;;;;;22.05;48.29;101131.81;8261545;28;20038;-60
2023/04/30 11:14:11;;;;;;;5.88;3.85;;;;;;;22.33;47.19;101119.75;8288234;28;20400;-60
2023/04/30 11:18:12;;;;;;;5.47;4.00;;;;;;;23.07;47.37;101116.13;8287281;28;20037;-60
2023/04/30 11:26:25;;;;;;;4.72;3.30;;;;;;;24.48;45.43;101113.91;8347104;27;20908;-61
2023/04/30 11:30:28;;;;;;;5.32;3.72;;;;;;;21.57;48.36;101116.97;8343800;28;20381;-58
2023/04/30 11:34:29;;;;;;;6.40;3.10;;;;;;;21.27;50.14;101104.38;8344330;28;20075;-58
2023/04/30 11:38:34;;;;;;;4.30;2.88;;;;;;;22.08;49.10;101104.72;8345519;28;20086;-59
2023/04/30 11:42:38;;;;;;;4.32;3.05;;;;;;;20.59;52.01;101101.19;8344761;28;20052;-58
2023/04/30 11:46:59;;;;;;;2.83;2.30;;;;;;;21.90;47.65;101085.09;8345407;28;20060;-59
2023/04/30 11:51:20;;;;;;;4.50;2.80;;;;;;;21.48;50.23;101093.38;8343792;28;20414;-59
2023/04/30 11:55:23;;;;;;;3.20;2.65;;;;;;;22.89;47.82;101088.25;8343190;28;20041;-58
2023/04/30 11:59:23;;;;;;;3.63;2.20;;;;;;;22.46;48.72;101081.22;8340387;28;20041;-59
2023/04/30 12:03:24;;;;;;;4.72;2.65;;;;;;;22.26;51.96;101068.41;8343195;28;20072;-59
2023/04/30 12:07:24;;;;;;;3.05;2.38;;;;;;;20.68;52.72;101058.81;8343472;28;20037;-59
2023/04/30 12:11:28;;;;;;;6.10;2.13;;;;;;;20.49;53.14;101054.75;8346525;28;20116;-61
2023/04/30 12:15:28;;;;;;;1.98;1.10;;;;;;;20.00;53.82;101058.28;8337873;28;20039;-61
2023/04/30 12:19:29;;;;;;;2.13;1.60;;;;;;;19.91;54.92;101042.94;8341058;28;20044;-61
2023/04/30 12:23:29;;;;;;;3.42;1.70;;;;;;;19.89;53.10;101047.75;8353004;28;20048;-61
2023/04/30 12:27:30;;;;;;;2.15;1.50;;;;;;;20.57;51.33;101034.56;8376099;28;20090;-61
2023/04/30 12:31:32;;;;;;;1.80;1.30;;;;;;;20.88;51.17;101029.66;8345001;28;20056;-61
2023/04/30 12:35:32;;;;;;;1.75;1.10;;;;;;;20.46;51.57;101026.84;8332618;28;20033;-61
2023/04/30 12:39:34;;;;;;;1.38;0.80;;;;;;;20.65;52.60;101037.22;8321089;28;20091;-61
2023/04/30 12:43:34;;;;;;;1.20;0.98;;;;;;;20.47;52.35;101031.28;8321716;28;20048;-61
2023/04/30 12:47:39;;;;;;;1.90;1.52;;;;;;;20.40;51.71;101033.09;8317957;28;20053;-61
2023/04/30 12:51:41;;;;;;;2.47;1.10;;;;;;;20.58;51.86;101025.28;8315064;28;20061;-61
2023/04/30 12:55:42;;;;;;;1.38;1.00;;;;;;;20.34;52.40;101028.38;8321879;28;20060;-61
2023/04/30 12:59:59;;;;;;;1.65;1.00;;;;;;;19.89;53.89;101028.53;8320209;28;20057;-61
2023/04/30 13:04:00;;;;;;;2.95;0.90;;;;;;;19.71;52.82;101019.78;8292480;28;20128;-61
2023/04/30 13:08:02;;;;;;;2.88;1.00;;;;;;;19.59;54.78;101022.16;8312167;28;20264;-61
2023/04/30 13:12:03;;;;;;;0.95;0.88;;;;;;;19.69;52.80;101011.75;8319665;28;20096;-61
2023/04/30 13:16:04;;;;;;;3.63;1.00;;;;;;;20.07;51.88;101010.63;8318329;28;20128;-61
2023/04/30 13:20:06;;;;;;;1.23;1.10;;;;;;;20.17;52.35;100999.41;8316303;28;20056;-61
2023/04/30 13:24:06;;;;;;;1.33;0.80;;;;;;;20.14;53.17;101000.63;8309428;28;20056;-61
2023/04/30 13:28:07;;;;;;;2.75;0.90;;;;;;;20.84;55.44;100992.63;8315778;28;20049;-61
2023/04/30 13:32:08;;;;;;;2.42;0.90;;;;;;;20.79;52.16;100975.84;8299940;28;20041;-61
2023/04/30 13:36:09;;;;;;;0.70;0.70;;;;;;;20.71;51.95;100979.56;8297268;28;20065;-61
2023/04/30 13:40:10;;;;;;;1.55;0.80;;;;;;;20.76;52.03;100973.47;8318097;28;20084;-61
2023/04/30 13:44:11;;;;;;;1.05;0.75;;;;;;;20.66;52.30;100961.97;8319887;28;20513;-61
2023/04/30 13:48:11;;;;;;;1.42;0.60;;;;;;;20.70;51.22;100968.75;8318544;28;20531;-61
2023/04/30 13:52:12;;;;;;;2.88;0.55;;;;;;;20.75;51.63;100941.56;8318097;28;20407;-61
2023/04/30 13:56:14;;;;;;;0.70;0.50;;;;;;;20.82;51.81;100962.56;8317307;28;20573;-61
2023/04/30 14:00:15;;;;;;;0.80;0.50;;;;;;;20.41;51.26;100955.13;8318166;28;20364;-59
2023/04/30 14:04:15;;;;;;;1.58;0.60;;;;;;;20.20;51.13;100946.84;8319600;28;20056;-60
2023/04/30 14:08:16;;;;;;;0.60;0.50;;;;;;;20.26;52.07;100943.31;8307534;28;20503;-59
2023/04/30 14:12:17;;;;;;;0.50;0.50;;;;;;;20.32;50.62;100945.31;8316105;28;20045;-59
2023/04/30 14:16:18;;;;;;;3.22;0.50;;;;;;;20.02;50.75;100941.72;8308829;28;20104;-60
2023/04/30 14:20:18;;;;;;;0.50;0.50;;;;;;;20.17;50.36;100933.50;8308013;28;20049;-59
2023/04/30 14:24:19;;;;;;;0.60;0.60;;;;;;;20.29;49.77;100926.47;8288997;28;20107;-59
2023/04/30 14:28:19;;;;;;;0.60;0.57;;;;;;;20.30;51.99;100917.16;8315050;28;20076;-60
2023/04/30 14:32:20;;;;;;;0.40;0.40;;;;;;;20.06;51.30;100920.25;8317949;28;20713;-59
2023/04/30 14:36:21;;;;;;;0.93;0.40;;;;;;;20.13;51.14;100921.19;8316809;28;20049;-60
2023/04/30 14:40:21;;;;;;;0.50;0.50;;;;;;;20.14;50.93;100920.16;8316343;28;20049;-60
2023/04/30 14:44:23;;;;;;;0.55;0.52;;;;;;;20.19;48.43;100904.78;8317256;28;20620;-60
2023/04/30 14:48:24;;;;;;;0.50;0.40;;;;;;;20.49;50.43;100897.34;8314316;28;20094;-60
2023/04/30 14:52:25;;;;;;;1.50;0.40;;;;;;;20.49;48.08;100900.09;8317647;28;20095;-60
2023/04/30 14:56:25;;;;;;;0.73;0.55;;;;;;;20.59;50.09;100889.63;8283853;28;20038;-60
2023/04/30 15:00:26;;;;;;;1.00;0.63;;;;;;;20.70;49.23;100892.69;8312098;28;20065;-60
2023/04/30 15:04:27;;;;;;;0.68;0.47;;;;;;;20.75;49.18;100889.34;8315746;28;20102;-60
2023/04/30 15:08:27;;;;;;;0.75;0.43;;;;;;;20.89;48.78;100885.69;8316660;28;20383;-60
2023/04/30 15:12:28;;;;;;;1.63;0.60;;;;;;;20.92;48.49;100877.88;8306899;28;20045;-62
2023/04/30 15:16:28;;;;;;;0.40;0.35;;;;;;;20.59;49.51;100881.38;8281609;28;20068;-62
2023/04/30 15:20:29;;;;;;;1.23;0.50;;;;;;;20.38;51.00;100881.34;8291301;28;20030;-62
2023/04/30 15:24:29;;;;;;;0.47;0.47;;;;;;;20.38;50.96;100868.47;8297001;28;20042;-62
2023/04/30 15:28:31;;;;;;;0.55;0.50;;;;;;;20.36;52.47;100872.44;8283016;28;20033;-62
2023/04/30 15:32:32;;;;;;;0.80;0.60;;;;;;;20.37;52.89;100865.94;8284712;28;20046;-62
2023/04/30 15:36:32;;;;;;;2.20;0.60;;;;;;;20.39;51.49;100867.44;8284398;28;20045;-61
2023/04/30 15:40:35;;;;;;;0.40;0.40;;;;;;;20.34;51.14;100855.34;8292755;28;20090;-60
2023/04/30 15:44:35;;;;;;;4.18;2.47;;;;;;;20.30;51.47;100856.75;8318230;28;20072;-60
2023/04/30 15:48:37;;;;;;;1.45;1.13;;;;;;;20.26;51.19;100849.97;8312823;28;20241;-60
2023/04/30 15:52:38;;;;;;;2.05;1.00;;;;;;;20.20;52.08;100851.59;8318739;28;20034;-58
2023/04/30 15:56:39;;;;;;;0.60;0.50;;;;;;;19.97;51.70;100844.53;8304827;28;20133;-58
2023/04/30 16:00:40;;;;;;;0.63;0.55;;;;;;;19.86;51.89;100845.88;8315327;28;20045;-57
2023/04/30 16:04:40;;;;;;;3.30;0.70;;;;;;;19.96;53.04;100846.41;8309983;28;20140;-61
2023/04/30 16:08:42;;;;;;;1.13;0.60;;;;;;;19.97;52.22;100839.88;8316299;28;20057;-62
2023/04/30 16:12:42;;;;;;;2.88;0.70;;;;;;;19.82;53.05;100819.03;8310747;28;20057;-62
2023/04/30 16:16:42;;;;;;;1.00;0.80;;;;;;;20.00;53.66;100834.00;8296982;28;20056;-62
2023/04/30 16:20:46;;;;;;;1.15;0.68;;;;;;;20.12;52.22;100835.22;8323008;28;20614;-62
2023/04/30 16:24:47;;;;;;;1.42;0.60;;;;;;;20.48;53.05;100826.94;8322371;28;20045;-62
2023/04/30 16:28:47;;;;;;;2.25;0.70;;;;;;;20.45;52.60;100821.84;8305819;28;20048;-62
2023/04/30 16:32:48;;;;;;;1.88;0.80;;;;;;;20.23;54.43;100814.66;8320070;28;20072;-62
2023/04/30 16:36:48;;;;;;;1.00;0.63;;;;;;;20.16;56.24;100814.56;8345918;28;20041;-62
2023/04/30 16:40:49;;;;;;;1.92;0.75;;;;;;;20.18;54.82;100803.38;8343370;28;20045;-62
2023/04/30 16:44:50;;;;;;;0.50;0.50;;;;;;;20.11;54.93;100810.69;8325538;28;20102;-62
2023/04/30 16:48:50;;;;;;;1.75;0.70;;;;;;;19.95;53.73;100798.06;8325723;28;20106;-62
2023/04/30 16:52:50;;;;;;;1.77;0.68;;;;;;;19.87;53.84;100805.53;8325089;28;20068;-62
2023/04/30 16:56:51;;;;;;;1.45;0.60;;;;;;;19.76;54.46;100797.84;8324129;28;20045;-62
2023/04/30 17:00:54;;;;;;;1.20;0.60;;;;;;;19.79;53.61;100797.44;8325170;28;20045;-62
2023/04/30 17:04:56;;;;;;;0.60;0.50;;;;;;;19.69;53.90;100796.88;8324364;28;20046;-63
2023/04/30 17:08:58;;;;;;;0.93;0.47;;;;;;;19.53;54.96;100803.47;8324823;28;20044;-63
2023/04/30 17:13:00;;;;;;;1.02;0.80;;;;;;;19.44;54.92;100793.63;8323240;28;20659;-63
2023/04/30 17:17:01;;;;;;;0.80;0.50;;;;;;;19.25;55.29;100784.03;8323830;28;20124;-63
2023/04/30 17:21:01;;;;;;;1.17;0.60;;;;;;;19.22;55.45;100784.44;8323301;28;20056;-63
2023/04/30 17:25:03;;;;;;;2.05;0.43;;;;;;;19.15;56.19;100780.75;8323009;28;20065;-63
2023/04/30 17:29:04;;;;;;;1.40;0.60;;;;;;;19.10;55.98;100775.00;8323178;28;20515;-63
2023/04/30 17:33:05;;;;;;;2.20;0.70;;;;;;;19.08;56.01;100779.81;8323890;28;22146;-63
2023/04/30 17:37:06;;;;;;;3.03;0.60;;;;;;;19.03;56.84;100779.50;8323867;28;20484;-63
2023/04/30 17:41:06;;;;;;;1.17;0.70;;;;;;;19.04;56.51;100774.91;8323296;28;20384;-63
2023/04/30 17:45:07;;;;;;;2.08;0.50;;;;;;;19.11;56.71;100781.31;8322800;28;20037;-63
2023/04/30 17:49:08;;;;;;;1.58;0.85;;;;;;;19.02;56.99;100783.31;8324516;28;20037;-63
2023/04/30 17:53:08;;;;;;;2.75;0.70;;;;;;;18.97;56.84;100771.22;8324163;28;20569;-63
2023/04/30 17:57:09;;;;;;;1.40;0.50;;;;;;;18.83;57.12;100772.91;8323908;28;20037;-63
2023/04/30 18:01:09;;;;;;;1.63;0.70;;;;;;;18.74;58.32;100782.25;8323402;28;20033;-63
2023/04/30 18:05:11;;;;;;;1.65;0.60;;;;;;;18.70;57.95;100771.84;8321738;28;20049;-63
2023/04/30 18:09:12;;;;;;;0.77;0.50;;;;;;;18.55;58.63;100777.31;8324028;28;20056;-61
2023/04/30 18:13:13;;;;;;;3.30;0.60;;;;;;;18.45;59.23;100773.94;8323368;28;20033;-61
2023/04/30 18:17:14;;;;;;;1.20;0.60;;;;;;;18.37;59.15;100764.97;8322856;28;20037;-61
2023/04/30 18:21:14;;;;;;;1.15;0.60;;;;;;;18.29;59.44;100768.59;8322990;28;20079;-61
2023/04/30 18:25:15;;;;;;;1.35;0.73;;;;;;;18.19;59.44;100767.13;8322470;28;20496;-61
2023/04/30 18:29:16;;;;;;;6.28;0.70;;;;;;;18.16;59.45;100767.50;8294165;28;20034;-61
2023/04/30 18:33:16;;;;;;;1.17;0.70;;;;;;;18.13;59.50;100766.00;8288264;28;20042;-62
2023/04/30 18:37:17;;;;;;;1.00;0.70;;;;;;;18.05;60.04;100763.31;8316886;28;20483;-63
2023/04/30 18:41:18;;;;;;;2.42;0.82;;;;;;;18.00;61.02;100763.03;8315760;28;20047;-62